Accueil
METAR-TAF:

METAR-TAF

Aéroports :

Landivisiau, France

Base aérienne

latitude: 48-31N, longitude: 004-09W, altitude: 106 m

Observation

Le bulletin a été fait il y a 27 minutes, à 04:00 UTC
Vent 6 kt de sud
Température 7°C
Humidité 100%
Pression 1021 hPa
Visibilité 10 km ou plus
pas de nuages en-dessous de 1500 mètres et pas de cumulonimbus.

METAR: LFRJ 220400Z AUTO 18006KT CAVOK 07/07 Q1021

Heure: 06:27 (04:27 UTC)

Prévision

Le bulletin a été fait il y a 8 heures et 27 minutes, à 20:00 UTC
Prévision valable du 21 à 21 UTC au 22 à 06 UTC
Vent 4 kt de ouest/sud-ouest
Visibilité 10 km ou plus
pas de nuages en-dessous de 1500 mètres et pas de cumulonimbus.

TAF: LFRJ 212000Z 2121/2206 25004KT CAVOK

Observations et prévisions météorologiques de plus de 4000 aéroports (messages METAR et TAF).

Les stations disponibles sont représentées par des disques jaunes et rouges sur la carte.

Passer la souris dessus pour voir le nom de la station.

Cliquer dessus pour voir les observations et prévisions météorologiques.

Pour changer de carte: cliquez sur les boutons verts avec une croix noire pour zoomer, sur le bouton vert avec un tiret pour effectuer un zoom arrière, ou sur les flèches vertes pour les cartes adjacentes.


METAR-TAF: